createdAt,value
2018-12-10T00:00:59.720Z,6.54
2018-12-10T00:02:18.137Z,6.38
2018-12-10T00:02:57.134Z,6.45
2018-12-10T00:03:57.633Z,6.54
2018-12-10T00:06:52.980Z,6.57
2018-12-10T00:07:29.951Z,6.54
2018-12-10T00:08:28.987Z,6.50
2018-12-10T00:11:22.210Z,6.50
2018-12-10T00:13:59.004Z,6.35
2018-12-10T00:14:36.534Z,6.40
2018-12-10T00:17:32.763Z,6.45
2018-12-10T00:18:30.210Z,6.42
2018-12-10T00:19:29.275Z,6.42
2018-12-10T00:20:08.272Z,6.45
2018-12-10T00:22:43.497Z,6.40
2018-12-10T00:24:01.002Z,6.35
2018-12-10T00:24:40.001Z,6.35
2018-12-10T00:27:11.769Z,6.40
2018-12-10T00:28:49.282Z,6.38
2018-12-10T00:29:11.730Z,6.48
2018-12-10T00:30:11.319Z,6.30
2018-12-10T00:31:13.699Z,6.45
2018-12-10T00:32:12.231Z,6.38
2018-12-10T00:36:19.541Z,6.54
2018-12-10T00:37:19.554Z,6.54
2018-12-10T00:38:23.555Z,6.55
2018-12-10T00:41:16.719Z,6.50
2018-12-10T00:42:12.785Z,6.60
2018-12-10T00:42:51.794Z,6.64
2018-12-10T00:45:48.536Z,6.58
2018-12-10T00:46:48.541Z,6.53
2018-12-10T00:47:27.015Z,6.60
2018-12-10T00:48:28.056Z,6.57
2018-12-10T00:49:31.544Z,6.53
2018-12-10T00:50:28.046Z,6.38
2018-12-10T00:51:49.044Z,6.35
2018-12-10T00:52:28.544Z,6.40
2018-12-10T00:53:28.544Z,6.45
2018-12-10T00:54:59.040Z,6.43
2018-12-10T00:55:28.544Z,6.60
2018-12-10T00:56:50.984Z,6.51
2018-12-10T00:57:29.978Z,6.54
2018-12-10T01:00:04.390Z,6.53
2018-12-10T01:01:21.894Z,6.51
2018-12-10T01:02:00.893Z,6.57
2018-12-10T01:03:22.402Z,6.55
2018-12-10T01:04:22.393Z,6.58
2018-12-10T01:05:25.911Z,6.58
2018-12-10T01:06:01.393Z,6.54
2018-12-10T01:10:04.836Z,6.54
2018-12-10T01:11:08.849Z,6.51
2018-12-10T01:12:06.770Z,6.33
2018-12-10T01:16:11.762Z,6.32
2018-12-10T01:17:13.204Z,6.32
2018-12-10T01:18:08.769Z,6.25
2018-12-10T01:19:08.769Z,6.21
2018-12-10T01:20:11.230Z,6.24
2018-12-10T01:21:14.703Z,6.30
2018-12-10T01:22:09.271Z,6.24
2018-12-10T01:23:09.273Z,6.24
2018-12-10T01:24:09.270Z,6.33
2018-12-10T01:26:44.487Z,6.36
2018-12-10T01:27:40.995Z,6.30
2018-12-10T01:28:40.995Z,6.38
2018-12-10T01:30:04.498Z,6.35
2018-12-10T01:31:02.494Z,6.30
2018-12-10T01:32:08.929Z,6.32
2018-12-10T01:33:02.494Z,6.36
2018-12-10T01:35:35.679Z,6.06
2018-12-10T01:36:13.227Z,6.08
2018-12-10T01:37:38.228Z,5.96
2018-12-10T01:39:44.955Z,5.96
2018-12-10T01:40:44.962Z,5.95
2018-12-10T01:41:44.963Z,5.93
2018-12-10T01:43:08.972Z,5.87
2018-12-10T01:43:45.460Z,5.84
2018-12-10T01:44:45.467Z,5.80
2018-12-10T01:45:45.462Z,5.83
2018-12-10T01:48:41.679Z,5.85
2018-12-10T01:49:17.189Z,5.74
2018-12-10T01:56:28.661Z,5.78
2018-12-10T01:57:26.670Z,5.75
2018-12-10T01:58:30.179Z,5.77
2018-12-10T02:00:58.908Z,5.85
2018-12-10T02:02:22.854Z,5.81
2018-12-10T02:02:58.910Z,5.93
2018-12-10T02:05:34.093Z,5.88
2018-12-10T02:06:34.100Z,5.92
2018-12-10T02:07:34.097Z,5.87
2018-12-10T02:08:55.599Z,5.84
2018-12-10T02:09:59.100Z,5.92
2018-12-10T02:10:34.598Z,5.93
2018-12-10T02:11:34.601Z,5.81
2018-12-10T02:12:56.099Z,5.98
2018-12-10T02:16:42.351Z,5.90
2018-12-10T02:17:42.356Z,5.92
2018-12-10T02:18:42.356Z,5.93
2018-12-10T02:19:42.856Z,5.88
2018-12-10T02:22:18.502Z,5.81
2018-12-10T02:23:19.948Z,5.77
2018-12-10T02:24:18.515Z,5.84
2018-12-10T02:25:18.507Z,5.70
2018-12-10T02:27:53.667Z,5.77
2018-12-10T02:29:14.674Z,5.81
2018-12-10T02:29:53.676Z,5.63
2018-12-10T02:31:15.194Z,5.77
2018-12-10T02:32:18.748Z,5.81
2018-12-10T02:32:54.174Z,5.75
2018-12-10T02:33:54.178Z,5.69
2018-12-10T02:38:01.831Z,5.85
2018-12-10T02:42:01.711Z,5.90
2018-12-10T02:43:12.654Z,5.88
2018-12-10T02:44:01.727Z,5.81
2018-12-10T02:46:33.445Z,5.83
2018-12-10T02:47:33.446Z,5.85
2018-12-10T02:51:39.645Z,5.62
2018-12-10T02:52:39.648Z,5.66
2018-12-10T02:53:42.154Z,5.66
2018-12-10T02:54:40.149Z,5.65
2018-12-10T02:55:39.365Z,5.63
2018-12-10T02:56:40.152Z,5.58
2018-12-10T02:57:40.151Z,5.60
2018-12-10T02:58:45.586Z,5.65
2018-12-10T03:00:01.647Z,5.67
2018-12-10T03:01:07.652Z,5.66
2018-12-10T03:01:40.669Z,5.58
2018-12-10T03:04:36.888Z,5.56
2018-12-10T03:05:12.387Z,5.47
2018-12-10T03:06:12.385Z,5.44
2018-12-10T03:07:14.896Z,5.48
2018-12-10T03:08:12.893Z,5.41
2018-12-10T03:09:12.885Z,5.48
2018-12-10T03:10:19.828Z,5.51
2018-12-10T03:14:16.518Z,5.67
2018-12-10T03:15:20.017Z,5.67
2018-12-10T03:17:48.114Z,5.69
2018-12-10T03:18:48.122Z,5.74
2018-12-10T03:19:48.120Z,5.81
2018-12-10T03:22:44.622Z,5.74
2018-12-10T03:23:23.629Z,5.59
2018-12-10T03:26:00.166Z,5.48
2018-12-10T03:26:55.231Z,5.42
2018-12-10T03:27:55.238Z,5.41
2018-12-10T03:28:55.735Z,5.42
2018-12-10T03:29:55.734Z,5.26
2018-12-10T03:30:59.238Z,5.35
2018-12-10T03:33:48.330Z,5.33
2018-12-10T03:34:48.330Z,5.30
2018-12-10T03:35:27.331Z,5.29
2018-12-10T03:38:23.122Z,5.27
2018-12-10T03:39:23.129Z,5.22
2018-12-10T03:40:02.130Z,5.27
2018-12-10T03:44:30.215Z,5.26
2018-12-10T03:45:12.157Z,5.15
2018-12-10T03:46:10.158Z,5.29
2018-12-10T03:47:30.722Z,5.40
2018-12-10T03:51:38.774Z,5.32
2018-12-10T03:57:16.009Z,5.32
2018-12-10T03:57:55.020Z,5.38
2018-12-10T04:00:32.368Z,5.58
2018-12-10T04:01:51.365Z,5.52
2018-12-10T04:02:30.378Z,5.45
2018-12-10T04:03:51.868Z,5.55
2018-12-10T04:04:33.872Z,5.62
2018-12-10T04:05:51.869Z,5.55
2018-12-10T04:06:36.305Z,5.58
2018-12-10T04:07:51.878Z,5.52
2018-12-10T04:10:26.603Z,5.67
2018-12-10T04:12:34.088Z,5.70
2018-12-10T04:15:31.057Z,5.59
2018-12-10T04:17:37.918Z,5.60
2018-12-10T04:18:58.923Z,5.62
2018-12-10T04:19:40.855Z,5.60
2018-12-10T04:22:16.356Z,5.60
2018-12-10T04:26:41.186Z,5.66
2018-12-10T04:27:16.698Z,5.62
2018-12-10T04:28:16.797Z,5.67
2018-12-10T04:29:38.190Z,5.63
2018-12-10T04:30:17.201Z,5.67
2018-12-10T04:31:41.691Z,5.69
2018-12-10T04:32:38.189Z,5.69
2018-12-10T04:33:38.726Z,5.65
2018-12-10T04:34:17.716Z,5.67
2018-12-10T04:35:19.125Z,5.65
2018-12-10T04:36:17.689Z,5.65
2018-12-10T04:37:21.189Z,5.70
2018-12-10T04:38:18.188Z,5.62
2018-12-10T04:39:18.189Z,5.62
2018-12-10T04:40:18.189Z,5.59
2018-12-10T04:44:45.916Z,5.62
2018-12-10T04:46:56.395Z,5.55
2018-12-10T04:49:31.694Z,5.60
2018-12-10T04:50:31.706Z,5.63
2018-12-10T04:51:34.699Z,5.62
2018-12-10T04:54:08.869Z,5.45
2018-12-10T04:55:10.361Z,5.42
2018-12-10T04:56:03.426Z,5.33
2018-12-10T04:57:05.926Z,5.38
2018-12-10T04:59:59.782Z,5.40
2018-12-10T05:00:35.303Z,5.26
2018-12-10T05:01:35.289Z,5.35
2018-12-10T05:02:56.789Z,5.33
2018-12-10T05:03:56.789Z,5.33
2018-12-10T05:04:39.290Z,5.35
2018-12-10T05:05:56.838Z,5.32
2018-12-10T05:06:36.290Z,5.23
2018-12-10T05:07:57.288Z,5.20
2018-12-10T05:08:57.288Z,5.20
2018-12-10T05:11:33.281Z,5.17
2018-12-10T05:12:12.287Z,5.17
2018-12-10T05:13:13.721Z,5.15
2018-12-10T05:14:11.874Z,5.23
2018-12-10T05:15:17.720Z,5.17
2018-12-10T05:16:12.788Z,5.15
2018-12-10T05:17:12.788Z,5.14
2018-12-10T05:18:13.721Z,5.20
2018-12-10T05:19:34.287Z,5.23
2018-12-10T05:20:17.289Z,5.17
2018-12-10T05:21:16.221Z,5.29
2018-12-10T05:22:13.294Z,5.14
2018-12-10T05:24:45.509Z,5.23
2018-12-10T05:26:12.954Z,5.24
2018-12-10T05:26:51.957Z,5.19
2018-12-10T05:27:45.523Z,5.15
2018-12-10T05:28:48.019Z,5.26
2018-12-10T05:31:21.366Z,5.27
2018-12-10T05:32:17.873Z,5.26
2018-12-10T05:33:17.879Z,5.26
2018-12-10T05:34:18.373Z,5.27
2018-12-10T05:38:24.937Z,5.26
2018-12-10T05:39:24.946Z,5.20
2018-12-10T05:40:47.407Z,5.22
2018-12-10T05:41:46.485Z,5.22
2018-12-10T05:42:28.445Z,5.20
2018-12-10T05:45:19.282Z,5.23
2018-12-10T05:45:56.806Z,5.17
2018-12-10T05:48:31.531Z,5.12
2018-12-10T05:49:49.537Z,5.22
2018-12-10T05:50:28.536Z,5.22
2018-12-10T05:51:29.036Z,5.15
2018-12-10T05:52:50.641Z,5.19
2018-12-10T05:53:33.064Z,5.20
2018-12-10T05:54:29.036Z,5.17
2018-12-10T05:55:29.544Z,5.24
2018-12-10T05:56:29.536Z,5.19
2018-12-10T05:57:29.536Z,5.26
2018-12-10T05:58:29.536Z,5.26
2018-12-10T06:01:07.826Z,5.33
2018-12-10T06:03:37.180Z,5.33
2018-12-10T06:04:41.188Z,5.37
2018-12-10T06:07:08.769Z,5.45
2018-12-10T06:08:08.781Z,5.45
2018-12-10T06:09:30.279Z,5.40
2018-12-10T06:11:44.130Z,5.45
2018-12-10T06:13:08.071Z,5.49
2018-12-10T06:13:44.139Z,5.42
2018-12-10T06:16:19.863Z,5.42
2018-12-10T06:17:15.871Z,5.42
2018-12-10T06:18:15.865Z,5.41
2018-12-10T06:22:44.001Z,5.44
2018-12-10T06:23:19.010Z,5.42
2018-12-10T06:24:19.007Z,5.51
2018-12-10T06:25:40.516Z,5.55
2018-12-10T06:26:19.508Z,5.58
2018-12-10T06:27:19.507Z,5.59
2018-12-10T06:29:55.696Z,5.59
2018-12-10T06:30:54.275Z,5.58
2018-12-10T06:31:54.260Z,5.60
2018-12-10T06:36:01.778Z,5.74
2018-12-10T06:37:01.848Z,5.70
2018-12-10T06:38:03.274Z,5.65
2018-12-10T06:42:10.936Z,5.60
2018-12-10T06:43:09.476Z,5.63
2018-12-10T06:44:09.464Z,5.67
2018-12-10T06:46:45.183Z,5.58
2018-12-10T06:49:19.655Z,5.58
2018-12-10T06:50:34.661Z,5.58
2018-12-10T06:51:13.672Z,5.63
2018-12-10T06:52:38.666Z,5.65
2018-12-10T06:55:08.495Z,5.69
2018-12-10T06:55:45.515Z,5.77
2018-12-10T06:58:20.746Z,5.73
2018-12-10T07:01:09.724Z,5.48
2018-12-10T07:03:45.201Z,5.40
2018-12-10T07:04:20.209Z,5.59
2018-12-10T07:05:21.645Z,5.52
2018-12-10T07:07:57.927Z,5.62
2018-12-10T07:08:57.368Z,5.59
2018-12-10T07:10:05.936Z,5.58
2018-12-10T07:11:15.398Z,5.48
2018-12-10T07:12:31.368Z,5.63
2018-12-10T07:13:15.895Z,5.58
2018-12-10T07:16:58.406Z,5.63
2018-12-10T07:17:58.413Z,5.48
2018-12-10T07:19:29.416Z,5.47
2018-12-10T07:19:58.139Z,5.42
2018-12-10T07:24:32.591Z,5.48
2018-12-10T07:26:16.106Z,5.42
2018-12-10T07:27:23.595Z,5.44
2018-12-10T07:29:58.962Z,5.49
2018-12-10T07:30:41.285Z,5.42
2018-12-10T07:31:37.387Z,5.48
2018-12-10T07:32:55.454Z,5.45
2018-12-10T07:34:01.475Z,5.42
2018-12-10T07:34:48.453Z,5.47
2018-12-10T07:36:00.409Z,5.44
2018-12-10T07:39:58.563Z,5.47
2018-12-10T07:42:33.383Z,5.33
2018-12-10T07:43:19.827Z,5.44
2018-12-10T07:44:11.853Z,5.35
2018-12-10T07:46:48.110Z,5.26
2018-12-10T07:48:06.515Z,5.38
2018-12-10T07:48:43.547Z,5.35
2018-12-10T07:51:15.770Z,5.45
2018-12-10T07:52:21.210Z,5.40
2018-12-10T07:53:15.777Z,5.32
2018-12-10T07:56:07.759Z,5.41
2018-12-10T07:56:46.857Z,5.40
2018-12-10T07:59:22.711Z,5.44
2018-12-10T08:00:22.719Z,5.42
2018-12-10T08:01:43.721Z,5.47
2018-12-10T08:05:50.823Z,5.41
2018-12-10T08:06:29.828Z,5.45
2018-12-10T08:07:29.836Z,5.41
2018-12-10T08:10:05.573Z,5.44
2018-12-10T08:11:07.566Z,5.59
2018-12-10T08:12:22.564Z,5.56
2018-12-10T08:14:39.302Z,5.59
